Time;durP1;ratioP1;P1;durP2;ratioP2;P2;SDS_P1;SDS_P2;PMS_P1;PMS_P2;Temp;Humidity;BMP_temperature;BMP_pressure;BME280_temperature;BME280_humidity;BME280_pressure;Samples;Min_cycle;Max_cycle;Signal;HPM_P1;HPM_P2
2023/12/29 02:14:21;;;;;;;5.82;2.25;;;;;;;;;;6064970;22;1262225;-89
2023/12/29 02:16:51;;;;;;;4.65;1.85;;;;;;;;;;6088201;23;20022;-89
2023/12/29 02:19:37;;;;;;;6.60;1.77;;;;;;;;;;6064086;23;20076;-89
2023/12/29 02:22:03;;;;;;;5.55;2.17;;;;;;;;;;6111933;23;20022;-89
2023/12/29 02:24:29;;;;;;;10.85;2.35;;;;;;;;;;6063651;23;20025;-90
2023/12/29 02:27:01;;;;;;;6.32;2.40;;;;;;;;;;6062492;23;20357;-90
2023/12/29 02:29:27;;;;;;;9.23;2.60;;;;;;;;;;6064159;23;20025;-89
2023/12/29 02:31:56;;;;;;;8.00;2.55;;;;;;;;;;6066533;23;20009;-90
2023/12/29 02:34:22;;;;;;;10.23;2.20;;;;;;;;;;6064005;23;20132;-89
2023/12/29 02:36:50;;;;;;;7.60;2.30;;;;;;;;;;6090049;23;20065;-90
2023/12/29 02:39:16;;;;;;;8.65;1.95;;;;;;;;;;6064998;23;20053;-89
2023/12/29 02:41:42;;;;;;;7.32;1.88;;;;;;;;;;6090171;23;20030;-88
2023/12/29 02:44:08;;;;;;;10.63;2.45;;;;;;;;;;6087654;23;20029;-89
2023/12/29 02:46:34;;;;;;;8.75;2.15;;;;;;;;;;6090188;23;20343;-89
2023/12/29 02:49:00;;;;;;;8.55;2.05;;;;;;;;;;6086309;23;20064;-89
2023/12/29 02:51:26;;;;;;;9.43;2.40;;;;;;;;;;6113549;23;20840;-89
2023/12/29 02:53:52;;;;;;;10.82;2.65;;;;;;;;;;6088686;23;20447;-89
2023/12/29 02:56:18;;;;;;;8.80;2.35;;;;;;;;;;6062065;23;20026;-88
2023/12/29 02:58:45;;;;;;;6.60;2.13;;;;;;;;;;6066050;23;20052;-88
2023/12/29 03:01:11;;;;;;;6.85;2.15;;;;;;;;;;6086382;23;20063;-89
2023/12/29 03:03:39;;;;;;;9.63;1.88;;;;;;;;;;6065650;23;20400;-88
2023/12/29 03:06:06;;;;;;;11.98;3.05;;;;;;;;;;6088588;23;20072;-88
2023/12/29 03:08:32;;;;;;;7.20;1.63;;;;;;;;;;6065029;23;20089;-87
2023/12/29 03:10:58;;;;;;;3.17;1.63;;;;;;;;;;6063621;23;20041;-88
2023/12/29 03:13:25;;;;;;;6.57;1.73;;;;;;;;;;6065814;23;20069;-88
2023/12/29 03:15:51;;;;;;;7.82;1.70;;;;;;;;;;6065942;23;20074;-88
2023/12/29 03:18:17;;;;;;;6.75;1.88;;;;;;;;;;6062241;23;20037;-88
2023/12/29 03:20:43;;;;;;;10.73;1.92;;;;;;;;;;6065585;23;20022;-88
2023/12/29 03:23:09;;;;;;;4.53;1.77;;;;;;;;;;6062300;23;20018;-87
2023/12/29 03:25:35;;;;;;;8.93;2.40;;;;;;;;;;6112171;23;20049;-89
2023/12/29 03:28:01;;;;;;;9.50;2.55;;;;;;;;;;6086906;23;20451;-89
2023/12/29 03:30:27;;;;;;;8.80;2.40;;;;;;;;;;6088468;23;20028;-88
2023/12/29 03:32:53;;;;;;;11.27;2.10;;;;;;;;;;6090660;23;20022;-89
2023/12/29 03:35:19;;;;;;;11.27;2.50;;;;;;;;;;6085932;23;20436;-88
2023/12/29 03:37:45;;;;;;;9.43;2.80;;;;;;;;;;6064994;23;20033;-88
2023/12/29 03:40:12;;;;;;;11.43;2.40;;;;;;;;;;6086469;23;20029;-89
2023/12/29 03:42:38;;;;;;;11.80;2.70;;;;;;;;;;6090299;23;20148;-88
2023/12/29 03:45:04;;;;;;;12.38;2.83;;;;;;;;;;6086161;23;20029;-88
2023/12/29 03:47:31;;;;;;;10.48;2.50;;;;;;;;;;6064543;23;20446;-88
2023/12/29 03:49:57;;;;;;;3.42;1.92;;;;;;;;;;6086215;23;20459;-89
2023/12/29 03:52:23;;;;;;;11.68;2.30;;;;;;;;;;6089524;23;20059;-89
2023/12/29 03:54:49;;;;;;;8.07;2.10;;;;;;;;;;6064240;23;20096;-89
2023/12/29 03:57:15;;;;;;;9.30;1.83;;;;;;;;;;6062385;23;20080;-88
2023/12/29 03:59:41;;;;;;;6.78;1.85;;;;;;;;;;6063682;23;20014;-91
2023/12/29 04:02:07;;;;;;;9.57;2.03;;;;;;;;;;6062915;23;20471;-89
2023/12/29 04:04:36;;;;;;;13.35;2.63;;;;;;;;;;6064008;23;20037;-89
2023/12/29 04:07:02;;;;;;;9.32;2.10;;;;;;;;;;6086130;23;20466;-89
2023/12/29 04:09:28;;;;;;;7.10;2.25;;;;;;;;;;6063787;23;20017;-88
2023/12/29 04:11:54;;;;;;;10.40;2.50;;;;;;;;;;6063747;23;20522;-89
2023/12/29 04:14:20;;;;;;;9.60;3.53;;;;;;;;;;6063680;23;20032;-88
2023/12/29 04:16:46;;;;;;;9.13;2.25;;;;;;;;;;6066098;23;20104;-88
2023/12/29 04:19:12;;;;;;;14.38;2.70;;;;;;;;;;6062304;23;20026;-88
2023/12/29 04:21:38;;;;;;;10.60;2.30;;;;;;;;;;6064325;23;20026;-88
2023/12/29 04:24:05;;;;;;;11.93;2.97;;;;;;;;;;6084777;23;20336;-89
2023/12/29 04:26:35;;;;;;;16.67;3.20;;;;;;;;;;6065390;23;20026;-89
2023/12/29 04:29:01;;;;;;;10.07;2.42;;;;;;;;;;6088570;23;20053;-88
2023/12/29 04:31:27;;;;;;;10.68;3.28;;;;;;;;;;6066656;23;20022;-88
2023/12/29 04:33:53;;;;;;;8.60;2.20;;;;;;;;;;6089298;23;20028;-89
2023/12/29 04:36:19;;;;;;;13.88;2.58;;;;;;;;;;6065073;23;20105;-89
2023/12/29 04:38:45;;;;;;;12.65;3.25;;;;;;;;;;6090078;23;20033;-89
2023/12/29 04:41:15;;;;;;;9.60;2.33;;;;;;;;;;6064072;23;20018;-88
2023/12/29 04:43:41;;;;;;;11.02;2.55;;;;;;;;;;6090396;23;20021;-89
2023/12/29 04:46:07;;;;;;;11.95;2.53;;;;;;;;;;6065747;23;20053;-89
2023/12/29 04:48:33;;;;;;;9.52;3.00;;;;;;;;;;6064893;23;20614;-89
2023/12/29 04:50:59;;;;;;;12.55;2.22;;;;;;;;;;6111955;23;20097;-89
2023/12/29 04:53:25;;;;;;;11.18;1.90;;;;;;;;;;6090966;23;20397;-89
2023/12/29 04:55:51;;;;;;;8.55;3.22;;;;;;;;;;6066139;23;20022;-89
2023/12/29 04:58:17;;;;;;;12.90;2.85;;;;;;;;;;6086265;23;20359;-89
2023/12/29 05:00:43;;;;;;;7.30;2.22;;;;;;;;;;6065559;23;20022;-88
2023/12/29 05:03:09;;;;;;;15.25;2.97;;;;;;;;;;6063777;23;20018;-88
2023/12/29 05:05:35;;;;;;;7.45;2.65;;;;;;;;;;6064973;23;20060;-88
2023/12/29 05:08:01;;;;;;;11.63;2.40;;;;;;;;;;6064256;23;20022;-89
2023/12/29 05:10:27;;;;;;;11.35;2.63;;;;;;;;;;6066083;23;20116;-88
2023/12/29 05:12:55;;;;;;;14.80;2.47;;;;;;;;;;6090775;23;20120;-89
2023/12/29 05:15:21;;;;;;;16.05;3.00;;;;;;;;;;6062282;23;20583;-89
2023/12/29 05:17:47;;;;;;;16.73;2.22;;;;;;;;;;6064742;23;20053;-88
2023/12/29 05:20:13;;;;;;;12.35;2.13;;;;;;;;;;6060967;23;20017;-89
2023/12/29 05:22:39;;;;;;;7.10;2.17;;;;;;;;;;6090700;23;20092;-88
2023/12/29 05:25:05;;;;;;;14.18;2.58;;;;;;;;;;6064547;23;20018;-88
2023/12/29 05:27:31;;;;;;;8.98;2.13;;;;;;;;;;6114411;23;20363;-89
2023/12/29 05:29:57;;;;;;;6.45;1.45;;;;;;;;;;6111487;23;20078;-89
2023/12/29 05:32:23;;;;;;;11.10;2.47;;;;;;;;;;6065992;23;20351;-89
2023/12/29 05:34:49;;;;;;;16.85;2.63;;;;;;;;;;6066191;23;20026;-88
2023/12/29 05:37:16;;;;;;;8.55;1.88;;;;;;;;;;6064879;23;20060;-89
2023/12/29 05:39:42;;;;;;;14.38;2.05;;;;;;;;;;6068039;23;20037;-89
2023/12/29 05:42:08;;;;;;;10.27;1.95;;;;;;;;;;6066237;23;20018;-88
2023/12/29 05:44:37;;;;;;;13.57;3.28;;;;;;;;;;6066386;23;20022;-89
2023/12/29 05:47:03;;;;;;;14.57;2.35;;;;;;;;;;6065522;23;20018;-88
2023/12/29 05:49:29;;;;;;;9.88;2.25;;;;;;;;;;6065918;23;20459;-88
2023/12/29 05:51:55;;;;;;;12.48;2.70;;;;;;;;;;6064684;23;20024;-89
2023/12/29 05:54:21;;;;;;;10.10;2.03;;;;;;;;;;6066096;23;20028;-88
2023/12/29 05:56:47;;;;;;;8.48;2.03;;;;;;;;;;6090255;23;20678;-89
2023/12/29 05:59:13;;;;;;;8.05;2.00;;;;;;;;;;6062773;23;20097;-89
2023/12/29 06:01:39;;;;;;;14.10;2.97;;;;;;;;;;6113405;23;20021;-89
2023/12/29 06:04:05;;;;;;;13.07;2.47;;;;;;;;;;6084556;23;20029;-89
2023/12/29 06:06:31;;;;;;;10.75;1.77;;;;;;;;;;6065216;23;20410;-89
2023/12/29 06:08:57;;;;;;;10.95;2.15;;;;;;;;;;6060902;23;20017;-90
2023/12/29 06:11:23;;;;;;;13.65;2.17;;;;;;;;;;6089429;23;20513;-89
2023/12/29 06:13:49;;;;;;;11.25;2.53;;;;;;;;;;6064216;23;20022;-88
2023/12/29 06:16:26;;;;;;;17.83;3.00;;;;;;;;;;6063974;23;20427;-89
2023/12/29 06:18:52;;;;;;;16.73;2.70;;;;;;;;;;6065558;23;20029;-89
2023/12/29 06:21:19;;;;;;;17.30;2.00;;;;;;;;;;6064162;23;20526;-89
2023/12/29 06:23:45;;;;;;;11.57;2.00;;;;;;;;;;6089175;23;20321;-89
2023/12/29 06:26:18;;;;;;;13.00;3.08;;;;;;;;;;6061904;23;20058;-89
2023/12/29 06:28:45;;;;;;;12.57;2.47;;;;;;;;;;6065773;23;20023;-89
2023/12/29 06:31:11;;;;;;;13.27;2.25;;;;;;;;;;6063030;23;20026;-89
2023/12/29 06:33:37;;;;;;;14.85;2.65;;;;;;;;;;6066757;23;20403;-89
2023/12/29 06:36:03;;;;;;;12.15;3.50;;;;;;;;;;6064545;23;20014;-89
2023/12/29 06:38:30;;;;;;;13.48;2.58;;;;;;;;;;6090582;23;20029;-89
2023/12/29 06:40:55;;;;;;;13.15;2.65;;;;;;;;;;6087790;23;20691;-89
2023/12/29 06:43:21;;;;;;;11.55;2.75;;;;;;;;;;6066572;23;20022;-89
2023/12/29 06:45:47;;;;;;;13.73;2.88;;;;;;;;;;6088714;23;20021;-89
2023/12/29 06:48:13;;;;;;;18.73;2.92;;;;;;;;;;6084867;23;20422;-89
2023/12/29 06:50:39;;;;;;;15.35;2.88;;;;;;;;;;6066071;23;20018;-89
2023/12/29 06:53:05;;;;;;;15.20;2.65;;;;;;;;;;6112280;23;20018;-89
2023/12/29 06:55:31;;;;;;;15.10;2.95;;;;;;;;;;6064073;23;20058;-89
2023/12/29 06:57:57;;;;;;;15.32;2.65;;;;;;;;;;6064777;23;20021;-89
2023/12/29 07:00:24;;;;;;;14.38;3.22;;;;;;;;;;6066237;23;20083;-89
2023/12/29 07:02:50;;;;;;;16.95;3.90;;;;;;;;;;6089035;23;20053;-89
2023/12/29 07:05:16;;;;;;;15.95;3.28;;;;;;;;;;6062608;23;20018;-89
2023/12/29 07:07:42;;;;;;;16.33;2.58;;;;;;;;;;6066873;23;20024;-89
2023/12/29 07:10:08;;;;;;;15.52;2.83;;;;;;;;;;6086522;23;20448;-90
2023/12/29 07:12:34;;;;;;;11.25;2.67;;;;;;;;;;6112835;23;20022;-89
2023/12/29 07:15:00;;;;;;;18.50;2.53;;;;;;;;;;6084306;23;20208;-89
2023/12/29 07:17:26;;;;;;;10.43;3.10;;;;;;;;;;6087332;23;20018;-89
2023/12/29 07:19:52;;;;;;;18.33;3.20;;;;;;;;;;6062717;23;20013;-89
2023/12/29 07:22:18;;;;;;;19.75;2.58;;;;;;;;;;6112330;23;20045;-89
2023/12/29 07:24:45;;;;;;;21.27;2.83;;;;;;;;;;6064326;23;20014;-89
2023/12/29 07:27:11;;;;;;;18.95;3.10;;;;;;;;;;6062922;23;20026;-89
2023/12/29 07:29:37;;;;;;;13.05;2.70;;;;;;;;;;6087978;23;20076;-88
2023/12/29 07:32:03;;;;;;;14.35;3.10;;;;;;;;;;6086828;23;20044;-88
2023/12/29 07:34:31;;;;;;;18.85;2.88;;;;;;;;;;6088525;23;20021;-90
2023/12/29 07:36:58;;;;;;;24.08;3.70;;;;;;;;;;6063314;23;20128;-90
2023/12/29 07:39:24;;;;;;;19.70;3.92;;;;;;;;;;6088850;23;20081;-89
2023/12/29 07:41:50;;;;;;;13.57;3.78;;;;;;;;;;6065978;23;20014;-89
2023/12/29 07:44:17;;;;;;;20.15;3.28;;;;;;;;;;6062049;23;20129;-89
2023/12/29 07:46:43;;;;;;;16.55;2.60;;;;;;;;;;6063926;23;20022;-89
2023/12/29 07:49:09;;;;;;;14.80;2.58;;;;;;;;;;6086518;23;20044;-89
2023/12/29 07:51:39;;;;;;;16.45;2.83;;;;;;;;;;6065032;23;20029;-88
2023/12/29 07:54:05;;;;;;;16.85;2.63;;;;;;;;;;6086147;23;20028;-89
2023/12/29 07:56:31;;;;;;;13.77;2.92;;;;;;;;;;6114537;23;20026;-89
2023/12/29 07:58:57;;;;;;;13.52;2.13;;;;;;;;;;6062378;23;20068;-89
2023/12/29 08:01:23;;;;;;;14.38;2.92;;;;;;;;;;6065388;23;20101;-89
2023/12/29 08:03:49;;;;;;;16.23;2.90;;;;;;;;;;6114123;23;20054;-89
2023/12/29 08:06:16;;;;;;;22.50;3.00;;;;;;;;;;6065457;23;20018;-89
2023/12/29 08:08:41;;;;;;;15.93;3.17;;;;;;;;;;6067176;23;20022;-89
2023/12/29 08:11:14;;;;;;;16.40;2.90;;;;;;;;;;6088886;23;20072;-89
2023/12/29 08:13:40;;;;;;;16.95;2.80;;;;;;;;;;6065685;23;20061;-89
2023/12/29 08:16:07;;;;;;;11.80;2.50;;;;;;;;;;6084944;23;20364;-88
2023/12/29 08:18:33;;;;;;;11.68;3.20;;;;;;;;;;6064712;23;20014;-89
2023/12/29 08:20:59;;;;;;;15.88;3.00;;;;;;;;;;6086168;23;20116;-89
2023/12/29 08:23:26;;;;;;;16.33;3.28;;;;;;;;;;6066978;23;20478;-89
2023/12/29 08:25:53;;;;;;;12.90;2.42;;;;;;;;;;6090528;23;20077;-88
2023/12/29 08:28:19;;;;;;;12.40;2.15;;;;;;;;;;6113277;23;20459;-89
2023/12/29 08:30:45;;;;;;;15.35;2.88;;;;;;;;;;6090331;23;20384;-89
2023/12/29 08:33:13;;;;;;;15.93;2.63;;;;;;;;;;6065690;23;20030;-89
2023/12/29 08:35:39;;;;;;;15.20;2.97;;;;;;;;;;6065856;23;20022;-89
2023/12/29 08:38:05;;;;;;;17.88;3.33;;;;;;;;;;6064808;23;20026;-89
2023/12/29 08:40:31;;;;;;;12.40;3.10;;;;;;;;;;6065321;23;20136;-90
2023/12/29 08:42:57;;;;;;;19.55;3.63;;;;;;;;;;6113765;23;20018;-89
2023/12/29 08:45:24;;;;;;;13.38;2.80;;;;;;;;;;6065705;23;20017;-89
2023/12/29 08:47:50;;;;;;;16.67;2.83;;;;;;;;;;6063081;23;20018;-89
2023/12/29 08:50:16;;;;;;;11.85;2.95;;;;;;;;;;6063364;23;20228;-89
2023/12/29 08:52:42;;;;;;;12.68;2.95;;;;;;;;;;6066812;23;20046;-89
2023/12/29 08:55:09;;;;;;;15.45;2.92;;;;;;;;;;6062273;23;20017;-89
2023/12/29 08:57:35;;;;;;;16.20;2.83;;;;;;;;;;6065363;23;20057;-89
2023/12/29 09:00:01;;;;;;;14.52;3.33;;;;;;;;;;6064735;23;20033;-89
2023/12/29 09:02:27;;;;;;;11.90;2.63;;;;;;;;;;6066970;23;20021;-89
2023/12/29 09:04:54;;;;;;;8.18;2.60;;;;;;;;;;6064755;23;20100;-89
2023/12/29 09:07:20;;;;;;;10.15;2.65;;;;;;;;;;6065985;23;20053;-89
2023/12/29 09:09:46;;;;;;;15.27;2.50;;;;;;;;;;6091602;23;20018;-89
2023/12/29 09:12:12;;;;;;;10.48;2.55;;;;;;;;;;6065799;23;20017;-88
2023/12/29 09:14:38;;;;;;;4.63;1.65;;;;;;;;;;6070062;23;20038;-89
2023/12/29 09:17:05;;;;;;;6.38;1.65;;;;;;;;;;6090376;23;20025;-89
2023/12/29 09:19:31;;;;;;;6.55;1.83;;;;;;;;;;6070486;23;20096;-89
2023/12/29 09:21:57;;;;;;;7.93;1.77;;;;;;;;;;6070380;23;20128;-90
2023/12/29 09:24:23;;;;;;;8.77;1.80;;;;;;;;;;6095910;23;20080;-89
2023/12/29 09:26:50;;;;;;;7.15;2.08;;;;;;;;;;6095864;23;20017;-89
2023/12/29 09:29:20;;;;;;;9.45;2.28;;;;;;;;;;6094735;23;20021;-90
2023/12/29 09:31:46;;;;;;;7.53;2.08;;;;;;;;;;6073003;23;20021;-90
2023/12/29 09:34:12;;;;;;;5.15;2.25;;;;;;;;;;6070192;23;20092;-90
2023/12/29 09:36:38;;;;;;;11.40;2.65;;;;;;;;;;6094966;23;20409;-90
2023/12/29 09:39:04;;;;;;;9.95;2.00;;;;;;;;;;6068193;23;20013;-89
2023/12/29 09:41:30;;;;;;;10.50;2.20;;;;;;;;;;6095974;23;20435;-89
2023/12/29 09:43:56;;;;;;;7.82;2.33;;;;;;;;;;6094301;23;20018;-90
2023/12/29 09:46:23;;;;;;;10.15;2.33;;;;;;;;;;6097118;23;20014;-89
2023/12/29 09:48:52;;;;;;;11.07;2.88;;;;;;;;;;6071991;23;20028;-89
2023/12/29 09:51:23;;;;;;;10.73;2.08;;;;;;;;;;6068496;23;20021;-89
2023/12/29 09:53:50;;;;;;;10.10;3.13;;;;;;;;;;6096534;23;20032;-89
2023/12/29 09:56:20;;;;;;;7.10;1.73;;;;;;;;;;6069203;23;20018;-89
2023/12/29 09:58:48;;;;;;;13.20;2.25;;;;;;;;;;6072114;23;20104;-90
2023/12/29 10:01:15;;;;;;;11.35;3.05;;;;;;;;;;6068520;23;20128;-89
2023/12/29 10:03:43;;;;;;;9.67;2.00;;;;;;;;;;6070626;23;20079;-90
2023/12/29 10:06:11;;;;;;;9.38;2.80;;;;;;;;;;6069941;23;20013;-90
2023/12/29 10:08:37;;;;;;;15.07;2.77;;;;;;;;;;6070938;23;20024;-89
2023/12/29 10:11:03;;;;;;;10.40;2.10;;;;;;;;;;6117359;23;20253;-89
2023/12/29 10:13:29;;;;;;;10.77;2.20;;;;;;;;;;6094496;23;20083;-90
2023/12/29 10:16:20;;;;;;;5.80;2.17;;;;;;;;;;6094230;23;20021;-90
2023/12/29 10:18:58;;;;;;;7.20;2.55;;;;;;;;;;6075029;23;20036;-89
2023/12/29 10:21:28;;;;;;;12.93;2.85;;;;;;;;;;6072287;23;20025;-90
2023/12/29 10:24:12;;;;;;;10.40;2.15;;;;;;;;;;6068818;23;20022;-90
2023/12/29 10:26:38;;;;;;;8.15;1.90;;;;;;;;;;6096130;23;20068;-90
2023/12/29 10:29:06;;;;;;;11.75;2.88;;;;;;;;;;6069402;23;20029;-90
2023/12/29 10:31:36;;;;;;;8.65;2.30;;;;;;;;;;6071716;23;20025;-91
2023/12/29 10:34:28;;;;;;;9.43;2.05;;;;;;;;;;6068178;23;20032;-90
2023/12/29 10:36:55;;;;;;;4.97;1.95;;;;;;;;;;6094989;23;20421;-89
2023/12/29 10:39:21;;;;;;;9.05;2.30;;;;;;;;;;6071932;23;20021;-89
2023/12/29 10:41:47;;;;;;;5.57;2.17;;;;;;;;;;6072783;23;20029;-90
2023/12/29 10:44:14;;;;;;;8.05;1.83;;;;;;;;;;6070466;23;20020;-89
2023/12/29 10:46:40;;;;;;;5.87;2.27;;;;;;;;;;6096010;23;20113;-89
2023/12/29 10:49:10;;;;;;;6.28;2.10;;;;;;;;;;6070763;23;20119;-90
2023/12/29 10:51:37;;;;;;;7.93;1.85;;;;;;;;;;6073383;23;20387;-90
2023/12/29 10:54:03;;;;;;;8.23;1.90;;;;;;;;;;6070346;23;20025;-90
2023/12/29 10:56:29;;;;;;;6.18;2.15;;;;;;;;;;6068568;23;20053;-90
2023/12/29 10:59:05;;;;;;;4.75;1.50;;;;;;;;;;6068986;23;20079;-90
2023/12/29 11:01:35;;;;;;;6.45;2.40;;;;;;;;;;6095997;23;20032;-90
2023/12/29 11:04:09;;;;;;;6.93;1.60;;;;;;;;;;6070234;23;20100;-89
2023/12/29 11:10:21;;;;;;;;;;;;;;;;;;;;;
2023/12/29 11:13:03;;;;;;;9.63;1.58;;;;;;;;;;6096909;23;20021;-92
2023/12/29 11:15:31;;;;;;;8.80;2.38;;;;;;;;;;6073229;23;20025;-91
2023/12/29 11:18:07;;;;;;;6.65;2.40;;;;;;;;;;6071827;23;20021;-93
2023/12/29 11:20:49;;;;;;;10.18;1.40;;;;;;;;;;6097378;23;20426;-93
2023/12/29 11:23:20;;;;;;;10.38;1.55;;;;;;;;;;6072638;23;20021;-94
2023/12/29 11:25:52;;;;;;;9.95;1.65;;;;;;;;;;6073474;23;20013;-93
2023/12/29 11:28:23;;;;;;;8.43;1.65;;;;;;;;;;6071621;23;20017;-93
2023/12/29 11:31:05;;;;;;;9.40;1.60;;;;;;;;;;6102686;23;20068;-94
2023/12/29 11:33:46;;;;;;;9.13;2.55;;;;;;;;;;6073601;23;20076;-93
2023/12/29 11:36:34;;;;;;;4.07;1.48;;;;;;;;;;6069790;23;20022;-94
2023/12/29 11:39:07;;;;;;;8.47;1.33;;;;;;;;;;6070472;23;20095;-92
2023/12/29 11:41:48;;;;;;;8.05;2.03;;;;;;;;;;6072419;23;20072;-90
2023/12/29 11:44:17;;;;;;;7.80;1.30;;;;;;;;;;6091716;23;20017;-92
2023/12/29 12:09:14;;;;;;;;;;;;;;;;;;;;;
2023/12/29 12:16:06;;;;;;;8.98;1.40;;;;;;;;;;6010681;23;20476;-84
2023/12/29 12:19:19;;;;;;;8.23;1.27;;;;;;;;;;5922225;24;20092;-84
2023/12/29 12:22:44;;;;;;;;;;;;;;;;;;;;;
2023/12/29 12:25:38;;;;;;;;;;;;;;;;;;;;;
2023/12/29 12:28:57;;;;;;;;;;;;;;;;;;;;;
2023/12/29 12:32:22;;;;;;;;;;;;;;;;;;;;;
2023/12/29 12:39:38;;;;;;;10.98;2.20;;;;;;;;;;5846037;24;20022;-84
2023/12/29 13:12:21;;;;;;;9.50;1.50;;;;;;;;;;5893143;24;20036;-86
2023/12/29 21:19:12;;;;;;;4.78;1.60;;;;;;;;;;6118694;22;3944768;-90
2023/12/29 21:25:19;;;;;;;7.43;1.40;;;;;;;;;;6107545;23;20326;-89
2023/12/29 21:28:01;;;;;;;;;;;;;;;;;;;;;
2023/12/29 21:30:56;;;;;;;6.90;1.58;;;;;;;;;;6088632;23;20439;-89
2023/12/29 21:37:40;;;;;;;3.38;1.70;;;;;;;;;;6065998;23;20094;-89
2023/12/29 21:40:43;;;;;;;7.28;1.58;;;;;;;;;;6065762;23;20582;-89
2023/12/29 21:43:34;;;;;;;4.65;2.08;;;;;;;;;;6055655;23;20093;-90
2023/12/29 21:46:48;;;;;;;8.95;1.85;;;;;;;;;;6034705;23;20014;-89
2023/12/29 21:49:58;;;;;;;;;;;;;;;;;;;;;
2023/12/29 21:52:56;;;;;;;6.50;2.00;;;;;;;;;;6122321;23;20022;-89
2023/12/29 21:56:02;;;;;;;7.82;1.92;;;;;;;;;;6034050;23;20062;-89
2023/12/29 21:59:13;;;;;;;;;;;;;;;;;;;;;
2023/12/29 22:15:10;;;;;;;5.80;2.17;;;;;;;;;;6063616;23;20093;-89
2023/12/29 22:25:20;;;;;;;2.80;1.30;;;;;;;;;;6050550;23;20019;-89
2023/12/29 22:28:28;;;;;;;;;;;;;;;;;;;;;
2023/12/29 22:31:40;;;;;;;;;;;;;;;;;;;;;
2023/12/29 22:34:36;;;;;;;3.40;1.10;;;;;;;;;;6115409;23;20018;-89
2023/12/29 22:37:33;;;;;;;2.60;1.10;;;;;;;;;;6090995;23;20067;-89
2023/12/29 22:40:17;;;;;;;2.35;1.02;;;;;;;;;;6115980;23;20025;-89
2023/12/29 22:45:40;;;;;;;3.28;1.45;;;;;;;;;;6132809;23;20024;-89
2023/12/29 22:48:16;;;;;;;4.35;1.88;;;;;;;;;;6074786;23;20021;-89
2023/12/29 22:50:54;;;;;;;6.32;2.25;;;;;;;;;;6116383;23;20091;-88
2023/12/29 22:53:23;;;;;;;5.60;1.77;;;;;;;;;;6116750;23;20049;-87
2023/12/29 22:56:03;;;;;;;3.80;2.25;;;;;;;;;;6069729;23;20014;-88
2023/12/29 22:58:40;;;;;;;4.35;2.13;;;;;;;;;;6078253;23;20466;-89
2023/12/29 23:01:18;;;;;;;7.43;2.40;;;;;;;;;;6096540;23;20032;-89
2023/12/29 23:03:50;;;;;;;7.25;2.70;;;;;;;;;;6123667;23;20028;-89
2023/12/29 23:06:45;;;;;;;6.28;1.85;;;;;;;;;;6121377;23;20032;-89
2023/12/29 23:09:31;;;;;;;;;;;;;;;;;;;;;
2023/12/29 23:12:09;;;;;;;5.85;1.60;;;;;;;;;;6086445;23;20032;-89
2023/12/29 23:14:47;;;;;;;4.82;1.67;;;;;;;;;;6044069;23;20351;-89
2023/12/29 23:17:25;;;;;;;4.82;1.88;;;;;;;;;;6037566;23;20013;-88
2023/12/29 23:20:10;;;;;;;2.67;1.33;;;;;;;;;;6076402;23;20061;-89
2023/12/29 23:22:40;;;;;;;3.60;1.63;;;;;;;;;;6095544;23;20310;-89
2023/12/29 23:25:16;;;;;;;6.07;0.93;;;;;;;;;;6070508;23;20056;-88
2023/12/29 23:27:56;;;;;;;4.13;1.25;;;;;;;;;;6094611;23;20025;-89
2023/12/29 23:30:24;;;;;;;4.88;1.27;;;;;;;;;;6093389;23;20517;-89
2023/12/29 23:32:52;;;;;;;8.10;1.50;;;;;;;;;;6070686;23;20021;-90
2023/12/29 23:35:20;;;;;;;6.15;1.50;;;;;;;;;;6069558;23;20766;-89
2023/12/29 23:37:46;;;;;;;4.05;1.30;;;;;;;;;;6066766;23;20104;-88
2023/12/29 23:40:12;;;;;;;2.40;0.98;;;;;;;;;;6116967;23;20095;-89
2023/12/29 23:42:38;;;;;;;7.50;1.42;;;;;;;;;;6154566;23;20012;-89
2023/12/29 23:45:04;;;;;;;5.32;1.40;;;;;;;;;;6124268;23;20012;-89
2023/12/29 23:47:30;;;;;;;5.03;1.40;;;;;;;;;;6127843;23;20070;-88
2023/12/29 23:49:56;;;;;;;8.75;1.20;;;;;;;;;;6126220;23;20020;-89
2023/12/29 23:52:22;;;;;;;6.30;0.90;;;;;;;;;;6127404;23;20020;-88
2023/12/29 23:54:48;;;;;;;7.85;1.20;;;;;;;;;;6127202;23;20016;-88
2023/12/29 23:57:14;;;;;;;4.80;0.90;;;;;;;;;;6150314;23;20071;-89
2023/12/29 23:59:40;;;;;;;5.70;1.20;;;;;;;;;;6127974;23;20013;-89
